Time,TemperatureF,DewpointF,PressureIn,WindDirection,WindDirectionDegrees,WindSpeedMPH,WindSpeedGustMPH,Humidity,HourlyPrecipIn,Conditions,Clouds,dailyrainin,SolarRadiationWatts/m^2,SoftwareType,DateUTC
2013-07-16 00:01:00,74.0,72.0,-100.00,NE,36,0.0,4.0,92,0.00,,,0.00,0.000000,,2013-07-16 04:01:00,
2013-07-16 13:11:00,84.0,70.0,-100.00,East,79,8.0,18.0,62,-99.99,,,0.00,787.000000,,2013-07-16 17:11:00,
2013-07-16 13:43:00,84.0,70.0,-100.00,East,79,8.0,18.0,62,-99.99,,,0.00,787.000000,,2013-07-16 17:43:00,
2013-07-16 13:53:00,84.0,70.0,-100.00,East,79,8.0,18.0,62,-99.99,,,0.00,787.000000,,2013-07-16 17:53:00,
2013-07-16 14:01:00,84.0,70.0,-100.00,East,79,8.0,18.0,62,-99.99,,,0.00,787.000000,,2013-07-16 18:01:00,
2013-07-16 14:11:00,84.0,70.0,-100.00,East,85,6.0,16.0,62,0.00,,,0.00,639.000000,,2013-07-16 18:11:00,
2013-07-16 14:43:00,84.0,70.0,-100.00,East,85,6.0,16.0,62,0.00,,,0.00,639.000000,,2013-07-16 18:43:00,
2013-07-16 14:53:00,84.0,70.0,-100.00,East,85,6.0,16.0,62,0.00,,,0.00,639.000000,,2013-07-16 18:53:00,
2013-07-16 15:01:00,84.0,70.0,-100.00,East,85,6.0,16.0,62,0.00,,,0.00,639.000000,,2013-07-16 19:01:00,
2013-07-16 15:11:00,86.0,70.0,-100.00,ESE,120,6.0,17.0,60,0.00,,,0.00,682.000000,,2013-07-16 19:11:00,
2013-07-16 15:43:00,86.0,70.0,-100.00,ESE,120,6.0,17.0,60,0.00,,,0.00,682.000000,,2013-07-16 19:43:00,
2013-07-16 15:52:00,86.0,70.0,-100.00,ESE,120,6.0,17.0,60,0.00,,,0.00,682.000000,,2013-07-16 19:52:00,
2013-07-16 16:03:00,86.0,70.0,-100.00,ESE,120,6.0,17.0,60,0.00,,,0.00,682.000000,,2013-07-16 20:03:00,
2013-07-16 16:11:00,88.0,70.0,-100.00,East,92,5.0,12.0,56,0.00,,,0.00,715.000000,,2013-07-16 20:11:00,
2013-07-16 16:43:00,88.0,70.0,-100.00,East,92,5.0,12.0,56,0.00,,,0.00,715.000000,,2013-07-16 20:43:00,
2013-07-16 16:52:00,88.0,70.0,-100.00,East,92,5.0,12.0,56,0.00,,,0.00,715.000000,,2013-07-16 20:52:00,
2013-07-16 17:01:00,88.0,70.0,-100.00,East,92,5.0,12.0,56,0.00,,,0.00,715.000000,,2013-07-16 21:01:00,
2013-07-16 17:11:00,87.0,70.0,-100.00,East,81,5.0,12.0,57,0.00,,,0.00,488.000000,,2013-07-16 21:11:00,
2013-07-16 17:52:00,87.0,70.0,-100.00,East,81,5.0,12.0,57,0.00,,,0.00,488.000000,,2013-07-16 21:52:00,
2013-07-16 18:01:00,87.0,70.0,-100.00,East,81,5.0,12.0,57,0.00,,,0.00,488.000000,,2013-07-16 22:01:00,
2013-07-16 18:11:00,86.0,68.0,-100.00,ENE,78,4.0,12.0,56,0.00,,,0.00,433.000000,,2013-07-16 22:11:00,
2013-07-16 18:43:00,86.0,68.0,-100.00,ENE,78,4.0,12.0,56,0.00,,,0.00,433.000000,,2013-07-16 22:43:00,
2013-07-16 18:52:00,86.0,68.0,-100.00,ENE,78,4.0,12.0,56,0.00,,,0.00,433.000000,,2013-07-16 22:52:00,
2013-07-16 19:02:00,86.0,68.0,-100.00,ENE,78,4.0,12.0,56,0.00,,,0.00,433.000000,,2013-07-16 23:02:00,
2013-07-16 19:11:00,84.0,68.0,-100.00,East,83,4.0,10.0,59,0.00,,,0.00,179.000000,,2013-07-16 23:11:00,
2013-07-16 19:43:00,84.0,68.0,-100.00,East,83,4.0,10.0,59,0.00,,,0.00,179.000000,,2013-07-16 23:43:00,
2013-07-16 19:52:00,84.0,68.0,-100.00,East,83,4.0,10.0,59,0.00,,,0.00,179.000000,,2013-07-16 23:52:00,
2013-07-16 20:01:00,84.0,68.0,-100.00,East,83,4.0,10.0,59,0.00,,,0.00,179.000000,,2013-07-17 00:01:00,
2013-07-16 21:11:00,78.0,68.0,-100.00,NE,54,3.0,7.0,72,-99.99,,,0.00,1.000000,,2013-07-17 01:11:00,
2013-07-16 21:43:00,78.0,68.0,-100.00,NE,54,3.0,7.0,72,-99.99,,,0.00,1.000000,,2013-07-17 01:43:00,
2013-07-16 21:53:00,78.0,68.0,-100.00,NE,54,3.0,7.0,72,-99.99,,,0.00,1.000000,,2013-07-17 01:53:00,
2013-07-16 22:01:00,78.0,68.0,-100.00,NE,54,3.0,7.0,72,-99.99,,,0.00,1.000000,,2013-07-17 02:01:00,
2013-07-16 22:11:00,74.0,70.0,-100.00,NE,45,0.0,5.0,87,0.00,,,0.00,0.000000,,2013-07-17 02:11:00,
2013-07-16 22:43:00,74.0,70.0,-100.00,NE,45,0.0,5.0,87,0.00,,,0.00,0.000000,,2013-07-17 02:43:00,
2013-07-16 22:53:00,74.0,70.0,-100.00,NE,45,0.0,5.0,87,0.00,,,0.00,0.000000,,2013-07-17 02:53:00,
2013-07-16 23:01:00,74.0,70.0,-100.00,NE,45,0.0,5.0,87,0.00,,,0.00,0.000000,,2013-07-17 03:01:00,
2013-07-16 23:11:00,75.0,71.0,-100.00,ENE,75,2.0,5.0,87,0.00,,,0.00,0.000000,,2013-07-17 03:11:00,
2013-07-16 23:43:00,75.0,71.0,-100.00,ENE,75,2.0,5.0,87,0.00,,,0.00,0.000000,,2013-07-17 03:43:00,
2013-07-16 23:53:00,75.0,71.0,-100.00,ENE,75,2.0,5.0,87,0.00,,,0.00,0.000000,,2013-07-17 03:53:00,